Time;durP1;ratioP1;P1;durP2;ratioP2;P2;SDS_P1;SDS_P2;PMS_P1;PMS_P2;Temp;Humidity;BMP_temperature;BMP_pressure;BME280_temperature;BME280_humidity;BME280_pressure;Samples;Min_cycle;Max_cycle;Signal;HPM_P1;HPM_P2
2022/12/12 00:02:25;;;;;;;2.35;2.05;;;;;;;;;;6059358;29;20159;-59
2022/12/12 00:05:27;;;;;;;1.90;1.70;;;;;;;;;;6051348;29;20051;-59
2022/12/12 00:08:29;;;;;;;2.35;1.88;;;;;;;;;;6053152;29;20052;-58
2022/12/12 00:11:31;;;;;;;2.22;1.85;;;18.40;59.20;;;;;;6050517;29;20063;-58
2022/12/12 00:14:33;;;;;;;2.47;2.28;;;;;;;;;;6051787;29;20075;-59
2022/12/12 00:17:35;;;;;;;2.58;1.95;;;;;;;;;;6051010;29;21187;-57
2022/12/12 00:20:37;;;;;;;2.30;2.10;;;;;;;;;;6054226;29;20155;-66
2022/12/12 00:23:39;;;;;;;1.73;1.63;;;;;;;;;;6053175;29;20044;-59
2022/12/12 00:26:41;;;;;;;2.28;1.90;;;18.50;57.70;;;;;;6039768;29;20040;-59
2022/12/12 00:29:43;;;;;;;2.15;1.95;;;;;;;;;;6059388;29;20046;-58
2022/12/12 00:32:44;;;;;;;2.67;2.20;;;;;;;;;;6055464;29;20048;-60
2022/12/12 00:35:49;;;;;;;2.13;1.92;;;18.60;56.40;;;;;;6047195;29;20075;-60
2022/12/12 00:38:52;;;;;;;1.88;1.70;;;18.70;56.40;;;;;;6038869;29;20944;-59
2022/12/12 00:41:54;;;;;;;2.40;2.03;;;18.60;58.40;;;;;;6047171;29;20211;-59
2022/12/12 00:44:55;;;;;;;1.70;1.60;;;;;;;;;;6054346;29;21324;-59
2022/12/12 00:47:57;;;;;;;2.05;1.70;;;;;;;;;;6052080;29;20138;-59
2022/12/12 00:51:06;;;;;;;2.08;1.85;;;18.60;59.30;;;;;;6061259;29;21054;-59
2022/12/12 00:54:08;;;;;;;1.73;1.60;;;;;;;;;;6057132;29;20071;-59
2022/12/12 00:57:10;;;;;;;2.40;2.00;;;18.50;54.70;;;;;;6057326;29;20039;-58
2022/12/12 01:00:13;;;;;;;2.40;1.48;;;18.60;55.80;;;;;;6058239;29;20484;-56
2022/12/12 01:03:15;;;;;;;2.17;1.90;;;;;;;;;;6029916;29;20210;-58
2022/12/12 01:06:16;;;;;;;1.77;1.40;;;;;;;;;;6052147;29;20042;-57
2022/12/12 01:09:18;;;;;;;1.88;1.65;;;;;;;;;;6055448;29;20063;-59
2022/12/12 01:12:21;;;;;;;1.77;1.60;;;18.60;57.60;;;;;;6055783;29;20134;-59
2022/12/12 01:15:25;;;;;;;1.65;1.40;;;;;;;;;;6051174;29;20975;-58
2022/12/12 01:18:27;;;;;;;1.70;1.40;;;;;;;;;;6054166;29;20158;-59
2022/12/12 01:21:28;;;;;;;1.40;1.25;;;;;;;;;;6047601;29;21299;-59
2022/12/12 01:24:30;;;;;;;2.20;1.40;;;;;;;;;;6056154;29;20579;-59
2022/12/12 01:27:32;;;;;;;1.65;1.55;;;18.20;75.50;;;;;;6060063;29;20921;-59
2022/12/12 01:30:34;;;;;;;1.58;1.10;;;;;;;;;;6060144;29;21061;-59
2022/12/12 01:33:36;;;;;;;1.48;1.33;;;18.20;54.60;;;;;;6059405;29;21217;-59
2022/12/12 01:36:39;;;;;;;1.15;1.05;;;;;;;;;;6072543;29;20044;-60
2022/12/12 01:39:42;;;;;;;1.13;1.00;;;;;;;;;;6075637;29;20050;-59
2022/12/12 01:42:52;;;;;;;1.42;1.27;;;18.60;56.60;;;;;;6068660;29;20215;-59
2022/12/12 01:46:26;;;;;;;1.10;1.00;;;18.40;56.00;;;;;;6067484;29;20068;-57
2022/12/12 01:49:28;;;;;;;1.15;1.00;;;18.30;76.40;;;;;;6053537;29;20047;-59
2022/12/12 01:52:32;;;;;;;;;;;18.40;54.20;;;;;;6062861;29;20182;-59
2022/12/12 01:55:34;;;;;;;1.13;0.93;;;;;;;;;;6059745;29;19950;-60
2022/12/12 01:58:36;;;;;;;1.10;1.00;;;18.50;55.80;;;;;;6061001;29;20035;-59
2022/12/12 02:01:39;;;;;;;1.10;1.00;;;18.50;56.20;;;;;;6062904;29;20046;-59
2022/12/12 02:04:41;;;;;;;1.00;0.90;;;18.60;54.60;;;;;;6062879;29;21159;-58
2022/12/12 02:07:43;;;;;;;1.00;0.90;;;;;;;;;;6063138;29;20032;-58
2022/12/12 02:10:45;;;;;;;0.95;0.85;;;;;;;;;;6062351;29;20879;-59
2022/12/12 02:13:48;;;;;;;1.00;0.90;;;18.60;56.50;;;;;;6047593;29;20052;-59
2022/12/12 02:17:18;;;;;;;1.35;1.00;;;18.50;55.90;;;;;;6062250;29;20122;-59
2022/12/12 02:20:39;;;;;;;1.10;1.00;;;18.60;55.90;;;;;;6062259;29;20042;-59
2022/12/12 02:24:07;;;;;;;0.82;0.75;;;18.60;77.20;;;;;;6061599;29;20050;-62
2022/12/12 02:27:34;;;;;;;1.25;1.10;;;18.60;56.60;;;;;;6051534;29;20114;-58
2022/12/12 02:30:44;;;;;;;0.90;0.77;;;18.50;56.80;;;;;;6038853;29;20086;-58
2022/12/12 02:33:54;;;;;;;0.75;0.75;;;18.60;57.30;;;;;;6049482;29;20218;-58
2022/12/12 02:37:05;;;;;;;0.77;0.70;;;18.30;57.50;;;;;;6064888;29;20169;-59
2022/12/12 02:40:14;;;;;;;0.88;0.77;;;18.50;54.60;;;;;;6065334;29;21977;-59
2022/12/12 02:43:24;;;;;;;1.10;0.77;;;18.60;56.90;;;;;;6060592;29;20051;-59
2022/12/12 02:46:32;;;;;;;1.20;1.00;;;18.60;57.10;;;;;;6060572;29;20136;-59
2022/12/12 02:49:37;;;;;;;1.08;0.98;;;18.80;77.50;;;;;;6049110;29;20052;-59
2022/12/12 02:52:41;;;;;;;0.90;0.73;;;18.60;77.10;;;;;;6049300;29;20994;-59
2022/12/12 02:55:43;;;;;;;1.30;0.95;;;;;;;;;;6048838;29;20047;-59
2022/12/12 02:58:45;;;;;;;1.00;0.90;;;;;;;;;;6066156;29;20071;-59
2022/12/12 03:02:00;;;;;;;1.02;0.90;;;18.60;56.00;;;;;;6066158;29;20422;-59
2022/12/12 03:08:47;;;;;;;1.25;1.00;;;18.50;56.00;;;;;;6057850;29;20401;-59
2022/12/12 03:12:00;;;;;;;1.08;0.98;;;18.50;56.80;;;;;;6055167;29;20048;-57
2022/12/12 03:15:08;;;;;;;1.20;0.88;;;18.60;56.50;;;;;;6057248;29;20052;-57
2022/12/12 03:18:22;;;;;;;1.30;1.10;;;18.60;56.70;;;;;;6057151;29;20465;-58
2022/12/12 03:21:34;;;;;;;1.15;0.90;;;18.70;58.80;;;;;;6057992;29;20894;-59
2022/12/12 03:24:39;;;;;;;;;;;18.70;59.40;;;;;;6055493;29;20233;-59
2022/12/12 03:27:46;;;;;;;0.80;0.80;;;18.60;58.50;;;;;;6058237;29;20510;-59
2022/12/12 03:30:55;;;;;;;1.30;1.05;;;18.60;58.90;;;;;;6059283;29;20820;-59
2022/12/12 03:34:00;;;;;;;1.10;1.00;;;18.50;58.80;;;;;;6054471;29;20293;-59
2022/12/12 03:37:09;;;;;;;1.00;0.90;;;18.60;58.80;;;;;;6057485;29;20219;-59
2022/12/12 03:40:14;;;;;;;1.25;1.00;;;18.90;59.10;;;;;;6053945;29;20319;-59
2022/12/12 03:43:19;;;;;;;1.23;1.02;;;18.50;58.90;;;;;;6054197;29;20055;-59
2022/12/12 03:46:27;;;;;;;0.82;0.80;;;18.60;59.50;;;;;;6056537;29;20039;-59
2022/12/12 03:49:34;;;;;;;1.38;1.27;;;18.60;59.00;;;;;;6056422;29;20146;-59
2022/12/12 03:52:41;;;;;;;1.15;1.05;;;18.50;59.00;;;;;;6055203;29;20698;-59
2022/12/12 03:55:46;;;;;;;1.08;0.90;;;18.50;57.60;;;;;;6054582;29;20844;-58
2022/12/12 03:58:51;;;;;;;1.20;1.10;;;18.50;58.90;;;;;;6056054;29;20390;-57
2022/12/12 04:02:00;;;;;;;1.00;0.90;;;18.50;59.60;;;;;;6057312;29;20354;-59
2022/12/12 04:05:12;;;;;;;1.05;0.93;;;18.50;59.20;;;;;;6046439;29;20562;-59
2022/12/12 04:08:15;;;;;;;1.00;0.88;;;18.60;59.40;;;;;;6053394;29;20552;-59
2022/12/12 04:14:50;;;;;;;1.20;1.10;;;18.50;58.40;;;;;;6057786;29;20472;-59
2022/12/12 04:18:02;;;;;;;1.65;1.50;;;18.50;58.70;;;;;;6059881;29;20439;-59
2022/12/12 04:24:40;;;;;;;1.35;1.20;;;18.50;59.10;;;;;;6055717;29;21005;-57
2022/12/12 04:27:47;;;;;;;1.08;0.98;;;18.50;59.20;;;;;;6041573;29;20126;-59
2022/12/12 04:30:49;;;;;;;1.48;1.17;;;;;;;;;;6041604;29;21086;-59
2022/12/12 04:33:54;;;;;;;1.20;1.00;;;18.60;55.00;;;;;;6054865;29;20196;-59
2022/12/12 04:36:56;;;;;;;1.95;1.20;;;;;;;;;;6055447;29;20040;-58
2022/12/12 04:40:02;;;;;;;1.48;1.13;;;18.50;56.00;;;;;;6055277;29;20665;-59
2022/12/12 04:43:07;;;;;;;1.17;1.08;;;18.70;56.20;;;;;;6054559;29;20680;-58
2022/12/12 04:46:12;;;;;;;1.13;1.02;;;18.70;56.50;;;;;;6056001;29;20866;-59
2022/12/12 04:49:19;;;;;;;1.23;1.10;;;18.50;56.00;;;;;;6051411;29;20048;-58
2022/12/12 04:52:22;;;;;;;1.40;1.30;;;18.60;56.20;;;;;;6057697;29;20966;-58
2022/12/12 04:55:28;;;;;;;1.10;1.00;;;18.50;58.50;;;;;;6056798;29;20587;-59
2022/12/12 04:58:30;;;;;;;1.10;0.98;;;;;;;;;;6038529;29;20541;-58
2022/12/12 05:01:41;;;;;;;1.15;1.05;;;18.50;58.90;;;;;;6038697;29;20264;-59
2022/12/12 05:04:46;;;;;;;;;;;18.70;59.50;;;;;;6037062;29;20044;-59
2022/12/12 05:07:52;;;;;;;1.35;1.10;;;18.60;58.70;;;;;;6044400;28;20794;-59
2022/12/12 05:10:58;;;;;;;1.55;1.27;;;18.40;59.10;;;;;;6043402;29;20506;-59
2022/12/12 05:14:00;;;;;;;1.73;1.10;;;;;;;;;;6041277;29;20291;-59
2022/12/12 05:17:05;;;;;;;1.20;1.00;;;18.60;58.70;;;;;;6043285;29;20050;-59
2022/12/12 05:20:08;;;;;;;1.02;0.90;;;;;;;;;;6030259;29;20052;-59
2022/12/12 05:23:10;;;;;;;0.90;0.80;;;;;;;;;;6043642;29;20299;-59
2022/12/12 05:26:18;;;;;;;1.20;1.05;;;18.60;57.90;;;;;;6042731;29;20450;-59
2022/12/12 05:29:20;;;;;;;1.60;1.13;;;;;;;;;;6034311;29;20473;-58
2022/12/12 05:32:21;;;;;;;1.13;1.02;;;;;;;;;;6046815;29;20320;-59
2022/12/12 05:35:24;;;;;;;1.30;1.00;;;18.50;57.70;;;;;;6047603;29;20748;-59
2022/12/12 05:38:25;;;;;;;1.40;1.02;;;;;;;;;;6028393;29;20143;-59
2022/12/12 05:41:27;;;;;;;1.60;1.10;;;18.60;57.00;;;;;;6042084;29;20126;-59
2022/12/12 05:44:29;;;;;;;1.40;1.30;;;;;;;;;;6043330;29;20122;-59
2022/12/12 05:47:31;;;;;;;1.20;0.88;;;;;;;;;;6039633;29;20367;-58
2022/12/12 05:50:33;;;;;;;1.42;0.80;;;;;;;;;;6044616;29;20324;-58
2022/12/12 05:53:35;;;;;;;1.30;1.20;;;18.50;57.70;;;;;;6039684;29;20324;-59
2022/12/12 05:56:45;;;;;;;1.10;1.00;;;18.60;58.00;;;;;;6040828;29;20039;-59
2022/12/12 05:59:47;;;;;;;1.35;1.20;;;;;;;;;;6044195;29;20334;-59
2022/12/12 06:02:49;;;;;;;1.48;1.10;;;;;;;;;;6040355;29;20184;-58
2022/12/12 06:05:51;;;;;;;1.65;1.08;;;;;;;;;;6049020;28;20043;-58
2022/12/12 06:08:53;;;;;;;1.17;0.85;;;;;;;;;;6052079;29;20040;-59
2022/12/12 06:11:55;;;;;;;1.05;0.93;;;18.40;58.00;;;;;;6049575;29;20036;-59
2022/12/12 06:14:56;;;;;;;1.10;0.85;;;;;;;;;;6043655;29;20321;-58
2022/12/12 06:17:58;;;;;;;1.13;0.90;;;;;;;;;;6045224;29;20134;-59
2022/12/12 06:21:02;;;;;;;1.60;1.10;;;18.50;59.30;;;;;;6035957;29;20546;-59
2022/12/12 06:24:04;;;;;;;1.42;1.08;;;18.50;59.30;;;;;;6040722;29;20477;-58
2022/12/12 06:27:06;;;;;;;1.50;1.17;;;18.50;58.90;;;;;;6040353;29;20702;-56
2022/12/12 06:30:09;;;;;;;1.23;1.00;;;18.60;58.20;;;;;;6033342;29;20055;-59
2022/12/12 06:33:11;;;;;;;1.52;1.10;;;;;;;;;;6035268;29;20086;-59
2022/12/12 06:36:15;;;;;;;1.20;1.10;;;18.50;58.70;;;;;;6039925;29;20826;-59
2022/12/12 06:39:17;;;;;;;1.25;1.00;;;;;;;;;;6019945;29;20044;-59
2022/12/12 06:42:19;;;;;;;1.20;1.00;;;18.50;57.20;;;;;;6038968;29;20124;-59
2022/12/12 06:45:21;;;;;;;1.55;1.27;;;;;;;;;;6041444;29;20047;-59
2022/12/12 06:48:22;;;;;;;1.02;0.85;;;;;;;;;;6041818;29;20051;-59
2022/12/12 06:51:26;;;;;;;1.42;1.20;;;18.40;57.00;;;;;;6045862;29;20122;-59
2022/12/12 06:54:28;;;;;;;1.10;0.90;;;;;;;;;;6018632;29;21400;-60
2022/12/12 06:57:30;;;;;;;1.38;1.25;;;18.50;56.80;;;;;;6042737;29;20040;-59
2022/12/12 07:00:32;;;;;;;1.13;1.02;;;;;;;;;;6036066;29;20054;-59
2022/12/12 07:03:33;;;;;;;1.42;1.30;;;;;;;;;;6025717;29;20040;-58
2022/12/12 07:06:35;;;;;;;1.50;1.10;;;;;;;;;;6015100;29;20132;-58
2022/12/12 07:09:37;;;;;;;1.48;1.30;;;;;;;;;;6027042;29;20142;-59
2022/12/12 07:12:39;;;;;;;1.48;1.17;;;18.50;58.20;;;;;;6023817;28;20171;-59
2022/12/12 07:15:42;;;;;;;2.08;1.40;;;18.70;58.30;;;;;;6030038;29;20048;-60
2022/12/12 07:18:44;;;;;;;1.80;1.40;;;;;;;;;;6018413;29;20047;-59
2022/12/12 07:21:46;;;;;;;1.55;1.40;;;;;;;;;;6025326;29;20047;-59
2022/12/12 07:24:48;;;;;;;2.13;1.58;;;;;;;;;;6008154;29;20040;-59
2022/12/12 07:27:50;;;;;;;2.30;1.58;;;18.90;57.20;;;;;;6003575;29;20047;-59
2022/12/12 07:30:52;;;;;;;2.00;1.60;;;;;;;;;;6001737;29;20047;-59
2022/12/12 07:33:53;;;;;;;2.45;1.30;;;;;;;;;;6000844;29;20904;-60
2022/12/12 07:36:55;;;;;;;1.90;1.50;;;;;;;;;;6014239;29;20047;-59
2022/12/12 07:40:04;;;;;;;1.63;1.30;;;18.90;54.70;;;;;;5986688;29;21919;-56
2022/12/12 07:43:06;;;;;;;1.38;1.17;;;19.10;56.80;;;;;;5971057;29;20151;-58
2022/12/12 07:46:10;;;;;;;1.45;1.23;;;19.10;58.80;;;;;;5978219;29;20072;-58
2022/12/12 07:49:12;;;;;;;1.77;1.50;;;;;;;;;;5924943;29;20044;-60
2022/12/12 07:52:14;;;;;;;1.88;1.58;;;19.10;55.20;;;;;;5952424;29;20038;-60
2022/12/12 07:55:16;;;;;;;4.63;1.85;;;;;;;;;;5945473;29;20055;-62
2022/12/12 07:58:18;;;;;;;1.92;1.60;;;19.30;57.60;;;;;;5920956;29;20056;-62
2022/12/12 08:01:22;;;;;;;1.60;1.30;;;19.30;57.50;;;;;;5905263;29;20051;-62
2022/12/12 08:04:25;;;;;;;2.10;1.60;;;19.00;53.20;;;;;;5871540;29;20079;-60
2022/12/12 08:07:28;;;;;;;1.33;1.08;;;19.50;57.90;;;;;;5894290;29;21310;-58
2022/12/12 08:10:30;;;;;;;2.00;1.30;;;;;;;;;;5883706;29;20040;-59
2022/12/12 08:13:36;;;;;;;1.40;0.95;;;19.50;56.20;;;;;;5876044;29;22139;-62
2022/12/12 08:16:37;;;;;;;1.95;1.00;;;;;;;;;;5328463;29;21910;-60
2022/12/12 08:19:40;;;;;;;1.80;1.52;;;;;;;;;;5842958;29;21104;-61
2022/12/12 08:22:42;;;;;;;1.85;1.23;;;;;;;;;;5829402;29;20047;-60
2022/12/12 08:25:44;;;;;;;1.80;1.10;;;;;;;;;;5812015;29;21738;-62
2022/12/12 08:28:48;;;;;;;3.53;1.30;;;19.50;56.70;;;;;;5862270;29;20174;-62
2022/12/12 08:31:50;;;;;;;1.70;1.40;;;;;;;;;;5838344;29;20050;-62
2022/12/12 08:34:55;;;;;;;3.00;1.40;;;19.60;57.60;;;;;;5843865;29;20058;-63
2022/12/12 08:37:57;;;;;;;1.40;1.10;;;;;;;;;;5844896;28;21142;-61
2022/12/12 08:41:01;;;;;;;4.20;1.27;;;19.20;57.50;;;;;;5865810;29;20098;-63
2022/12/12 08:44:04;;;;;;;4.00;1.20;;;19.70;57.20;;;;;;5857637;29;20048;-62
2022/12/12 08:47:06;;;;;;;1.27;1.08;;;;;;;;;;5868721;29;20135;-63
2022/12/12 08:50:08;;;;;;;2.20;1.08;;;;;;;;;;5878360;29;20039;-62
2022/12/12 08:53:10;;;;;;;1.10;0.82;;;;;;;;;;5862760;29;20051;-62
2022/12/12 08:56:11;;;;;;;1.30;1.10;;;;;;;;;;5862723;29;20043;-63
2022/12/12 08:59:14;;;;;;;1.90;0.90;;;19.80;57.70;;;;;;5856225;29;21401;-63
2022/12/12 09:02:16;;;;;;;3.58;0.70;;;;;;;;;;5835640;29;20039;-64
2022/12/12 09:05:18;;;;;;;1.00;0.75;;;;;;;;;;5826959;29;20055;-65
2022/12/12 09:08:20;;;;;;;1.80;0.70;;;;;;;;;;5835500;29;21152;-63
2022/12/12 09:11:23;;;;;;;1.20;0.68;;;19.90;55.40;;;;;;5838776;29;20450;-63
2022/12/12 09:14:26;;;;;;;0.73;0.65;;;20.00;53.90;;;;;;5826737;29;20040;-61
2022/12/12 09:17:28;;;;;;;3.55;0.85;;;;;;;;;;5836172;29;20043;-64
2022/12/12 09:20:29;;;;;;;1.00;0.82;;;;;;;;;;5787189;29;20657;-63
2022/12/12 09:23:33;;;;;;;1.13;1.00;;;;;;;;;;5785542;29;20040;-63
2022/12/12 09:26:36;;;;;;;1.95;0.88;;;;;;;;;;5812220;29;20067;-61
2022/12/12 09:29:39;;;;;;;1.25;0.80;;;20.10;55.30;;;;;;5832788;29;20120;-62
2022/12/12 09:32:41;;;;;;;1.42;0.85;;;;;;;;;;5773955;29;20051;-63
2022/12/12 09:35:43;;;;;;;1.45;0.70;;;20.30;51.30;;;;;;5794346;29;21492;-62
2022/12/12 09:38:45;;;;;;;1.05;0.75;;;;;;;;;;5813378;29;20151;-61
2022/12/12 09:41:47;;;;;;;0.80;0.60;;;;;;;;;;5819314;29;21727;-62
2022/12/12 09:44:51;;;;;;;0.80;0.60;;;20.30;54.60;;;;;;5824260;29;20047;-62
2022/12/12 09:47:56;;;;;;;0.98;0.80;;;19.90;54.20;;;;;;5797784;29;20055;-63
2022/12/12 09:50:58;;;;;;;1.17;0.90;;;;;;;;;;5805830;29;20039;-65
2022/12/12 09:54:00;;;;;;;1.13;0.70;;;;;;;;;;5802669;29;20047;-61
2022/12/12 09:57:14;;;;;;;0.90;0.70;;;20.00;53.50;;;;;;5807850;29;20050;-60
2022/12/12 10:00:18;;;;;;;2.08;0.75;;;20.80;51.00;;;;;;5793936;29;20637;-63
2022/12/12 10:03:38;;;;;;;0.90;0.80;;;20.30;54.90;;;;;;5745301;29;20055;-62
2022/12/12 10:06:45;;;;;;;1.25;0.68;;;20.20;52.90;;;;;;5800423;29;20051;-60
2022/12/12 10:09:59;;;;;;;0.65;0.65;;;20.50;54.30;;;;;;5809304;29;20731;-60
2022/12/12 10:13:03;;;;;;;0.82;0.80;;;20.30;54.80;;;;;;5802696;29;20127;-60
2022/12/12 10:16:08;;;;;;;1.02;0.77;;;20.30;54.60;;;;;;5783242;29;20046;-59
2022/12/12 10:19:18;;;;;;;0.85;0.70;;;20.30;52.20;;;;;;5777272;29;20051;-60
2022/12/12 10:22:29;;;;;;;0.82;0.73;;;20.40;52.80;;;;;;5800076;29;21096;-60
2022/12/12 10:25:44;;;;;;;1.35;0.82;;;20.50;53.00;;;;;;5809436;29;20060;-61
2022/12/12 10:28:48;;;;;;;0.90;0.65;;;20.30;54.00;;;;;;5827405;29;20059;-56
2022/12/12 10:31:56;;;;;;;1.05;0.88;;;20.40;54.50;;;;;;5777038;29;21907;-60
2022/12/12 10:35:10;;;;;;;1.00;0.82;;;20.30;53.40;;;;;;5784360;29;20138;-59
2022/12/12 10:38:39;;;;;;;1.15;1.00;;;20.00;52.70;;;;;;5803785;29;20044;-57
2022/12/12 10:41:46;;;;;;;1.17;0.90;;;20.40;55.70;;;;;;5827099;29;20040;-59
2022/12/12 10:45:02;;;;;;;1.10;1.00;;;20.50;55.00;;;;;;5811270;29;20139;-61
2022/12/12 10:48:06;;;;;;;1.00;0.80;;;20.30;54.20;;;;;;5756618;29;20066;-59
2022/12/12 10:51:11;;;;;;;1.10;0.93;;;20.30;54.50;;;;;;5791156;29;20131;-59
2022/12/12 10:54:18;;;;;;;1.30;1.10;;;20.70;54.20;;;;;;5760699;29;20059;-61
2022/12/12 10:57:23;;;;;;;1.55;1.10;;;20.30;54.80;;;;;;5792477;29;21886;-60
2022/12/12 11:00:30;;;;;;;1.75;1.48;;;20.20;54.80;;;;;;5737869;29;20047;-59
2022/12/12 11:03:37;;;;;;;1.85;1.38;;;20.10;53.70;;;;;;5721886;29;20040;-61
2022/12/12 11:06:45;;;;;;;1.58;1.40;;;20.00;51.50;;;;;;5736354;29;20048;-61
2022/12/12 11:09:47;;;;;;;1.95;1.60;;;;;;;;;;5800431;29;21190;-61
2022/12/12 11:12:55;;;;;;;3.35;1.30;;;20.30;53.40;;;;;;5835647;29;21717;-64
2022/12/12 11:15:58;;;;;;;2.78;1.60;;;19.90;54.60;;;;;;5832776;29;20098;-62
2022/12/12 11:19:05;;;;;;;1.73;1.50;;;20.20;55.00;;;;;;5818387;29;20882;-63
2022/12/12 11:22:06;;;;;;;2.00;1.80;;;;;;;;;;5830887;29;20193;-62
2022/12/12 11:25:24;;;;;;;1.70;1.50;;;20.50;55.00;;;;;;5833569;29;20047;-63
2022/12/12 11:28:29;;;;;;;1.95;1.65;;;20.30;51.60;;;;;;5868479;29;20277;-63
2022/12/12 11:31:33;;;;;;;2.00;1.80;;;20.30;52.60;;;;;;5884812;29;20126;-66
2022/12/12 11:34:38;;;;;;;1.85;1.50;;;20.20;52.50;;;;;;5877830;29;20043;-62
2022/12/12 11:37:47;;;;;;;2.10;1.80;;;20.10;53.70;;;;;;5916047;29;20083;-62
2022/12/12 11:40:58;;;;;;;2.03;1.52;;;20.20;53.50;;;;;;5929357;29;20040;-63
2022/12/12 11:44:00;;;;;;;1.77;1.65;;;;;;;;;;5901960;29;20036;-62
2022/12/12 11:47:22;;;;;;;2.00;1.80;;;20.00;55.10;;;;;;5904537;29;20040;-63
2022/12/12 11:50:26;;;;;;;2.25;1.88;;;20.20;55.20;;;;;;5922546;29;20154;-62
2022/12/12 11:53:28;;;;;;;2.42;1.90;;;;;;;;;;5882891;28;20047;-63
2022/12/12 11:56:44;;;;;;;2.25;1.67;;;20.00;54.70;;;;;;5883158;29;20106;-63
2022/12/12 12:00:01;;;;;;;2.00;1.65;;;20.10;54.80;;;;;;5922348;29;21900;-62
2022/12/12 12:03:20;;;;;;;1.70;1.42;;;20.20;54.50;;;;;;5907498;29;20075;-61
2022/12/12 12:06:34;;;;;;;2.50;2.15;;;20.00;54.30;;;;;;5869510;29;21086;-62
2022/12/12 12:09:43;;;;;;;2.53;1.83;;;20.20;54.90;;;;;;5931348;29;20064;-57
2022/12/12 12:12:51;;;;;;;2.92;1.80;;;20.20;54.90;;;;;;5902778;29;20036;-63
2022/12/12 12:16:03;;;;;;;2.20;1.95;;;20.20;55.10;;;;;;5903144;29;22918;-63
2022/12/12 12:19:12;;;;;;;2.08;1.88;;;20.20;55.00;;;;;;5880736;29;20124;-62
2022/12/12 12:22:27;;;;;;;2.15;1.95;;;20.10;54.50;;;;;;5898534;29;20044;-63
2022/12/12 12:25:41;;;;;;;2.38;2.00;;;20.30;54.40;;;;;;5877522;29;20052;-65
2022/12/12 12:29:05;;;;;;;2.67;2.47;;;20.70;53.70;;;;;;5904158;29;20036;-65
2022/12/12 12:32:15;;;;;;;4.28;1.95;;;20.10;53.30;;;;;;5831193;29;20162;-62
2022/12/12 12:35:26;;;;;;;3.28;2.10;;;20.50;53.80;;;;;;5874297;29;20154;-65
2022/12/12 12:38:49;;;;;;;2.30;2.10;;;20.40;53.60;;;;;;5831296;29;20043;-63
2022/12/12 12:42:05;;;;;;;4.07;2.20;;;20.30;55.30;;;;;;5831556;29;21653;-66
2022/12/12 12:45:17;;;;;;;13.32;2.50;;;20.50;55.00;;;;;;5845545;29;20059;-64
2022/12/12 12:48:23;;;;;;;2.78;2.40;;;20.40;54.60;;;;;;5806661;29;20041;-64
2022/12/12 12:51:31;;;;;;;2.40;2.20;;;20.50;54.20;;;;;;5832774;29;20047;-63
2022/12/12 12:54:37;;;;;;;3.00;2.65;;;20.40;54.50;;;;;;5822382;29;21731;-63
2022/12/12 12:57:43;;;;;;;3.35;2.58;;;20.50;54.70;;;;;;5807761;29;20050;-65
2022/12/12 13:00:49;;;;;;;2.53;2.33;;;20.50;54.90;;;;;;5810863;29;20110;-62
2022/12/12 13:03:58;;;;;;;3.22;2.55;;;20.50;53.20;;;;;;5805385;29;20054;-63
2022/12/12 13:07:08;;;;;;;2.92;2.63;;;20.40;53.20;;;;;;5817832;29;20044;-64
2022/12/12 13:10:18;;;;;;;2.88;2.40;;;20.60;55.00;;;;;;5821147;29;20055;-63
2022/12/12 13:13:23;;;;;;;4.38;2.45;;;20.40;55.10;;;;;;5865883;29;20059;-63
2022/12/12 13:16:31;;;;;;;2.20;2.00;;;20.90;55.40;;;;;;5863273;28;20048;-64
2022/12/12 13:19:36;;;;;;;2.58;2.20;;;20.80;55.20;;;;;;5871554;29;20048;-65
2022/12/12 13:22:51;;;;;;;2.53;2.03;;;20.60;54.90;;;;;;5866655;29;20445;-64
2022/12/12 13:26:02;;;;;;;2.50;2.30;;;20.70;55.10;;;;;;5865134;29;20127;-64
2022/12/12 13:29:29;;;;;;;2.40;2.20;;;20.60;55.00;;;;;;5835033;29;20603;-65
2022/12/12 13:32:51;;;;;;;2.47;2.15;;;20.80;55.00;;;;;;5817273;29;21387;-62
2022/12/12 13:35:56;;;;;;;2.88;2.50;;;20.70;55.50;;;;;;5899069;23;21457;-66
2022/12/12 13:38:59;;;;;;;3.38;2.42;;;20.70;55.00;;;;;;5851945;29;20044;-65
2022/12/12 13:42:03;;;;;;;2.28;2.08;;;20.80;54.40;;;;;;5846458;29;20044;-63
2022/12/12 13:45:33;;;;;;;3.03;2.22;;;21.20;53.50;;;;;;5806586;29;20039;-64
2022/12/12 13:48:44;;;;;;;2.90;2.58;;;20.70;53.00;;;;;;5764261;29;23366;-65
2022/12/12 13:51:48;;;;;;;3.90;2.30;;;;;;;;;;5828392;29;20050;-66
2022/12/12 13:54:53;;;;;;;4.10;1.98;;;20.80;54.50;;;;;;5869844;29;20141;-63
2022/12/12 13:58:15;;;;;;;2.67;2.30;;;20.90;54.30;;;;;;5830641;28;20145;-63
2022/12/12 14:01:36;;;;;;;2.40;2.20;;;20.70;54.20;;;;;;5977041;23;21237;-65
2022/12/12 14:04:38;;;;;;;2.70;2.47;;;20.80;53.40;;;;;;5839316;28;20053;-66
2022/12/12 14:07:47;;;;;;;2.67;2.40;;;21.00;54.20;;;;;;5825112;28;21298;-65
2022/12/12 14:10:55;;;;;;;2.50;2.28;;;20.90;53.80;;;;;;6116275;23;20090;-64
2022/12/12 14:17:23;;;;;;;3.33;2.25;;;21.50;54.60;;;;;;6876417;23;20353;-63
2022/12/12 14:23:50;;;;;;;2.55;2.22;;;21.00;53.40;;;;;;6643269;23;20047;-64
2022/12/12 14:26:52;;;;;;;2.50;2.10;;;;;;;;;;6622652;23;20081;-64
2022/12/12 14:33:44;;;;;;;2.05;1.85;;;21.20;54.20;;;;;;6625119;23;20017;-65
2022/12/12 14:37:11;;;;;;;2.00;1.80;;;21.00;54.10;;;;;;6304349;23;20146;-65
2022/12/12 14:40:17;;;;;;;2.10;1.90;;;21.00;54.20;;;;;;5845641;28;20050;-63
2022/12/12 14:43:24;;;;;;;2.03;1.75;;;21.10;54.60;;;;;;6186680;23;20057;-65
2022/12/12 14:46:26;;;;;;;1.92;1.75;;;;;;;;;;5862198;28;20058;-64
2022/12/12 14:49:28;;;;;;;2.17;1.92;;;21.40;51.90;;;;;;5874458;28;20101;-62
2022/12/12 14:52:30;;;;;;;1.77;1.67;;;;;;;;;;6019220;23;20914;-65
2022/12/12 14:55:32;;;;;;;2.03;1.83;;;21.00;51.50;;;;;;5856461;28;21687;-63
2022/12/12 14:58:39;;;;;;;1.95;1.75;;;20.80;53.20;;;;;;5898853;28;21058;-62
2022/12/12 15:05:06;;;;;;;2.00;1.80;;;20.90;53.10;;;;;;6904166;23;20972;-61
2022/12/12 15:08:19;;;;;;;1.80;1.70;;;20.90;50.70;;;;;;6355356;23;20165;-63
2022/12/12 15:11:22;;;;;;;1.73;1.60;;;21.00;53.00;;;;;;5836690;28;22994;-65
2022/12/12 15:14:25;;;;;;;2.25;1.60;;;20.90;53.90;;;;;;5842139;28;20104;-61
2022/12/12 15:17:29;;;;;;;2.08;1.67;;;20.80;54.30;;;;;;5823169;28;20040;-61
2022/12/12 15:20:32;;;;;;;1.73;1.60;;;20.80;53.70;;;;;;5859393;28;20263;-62
2022/12/12 15:23:34;;;;;;;1.70;1.50;;;;;;;;;;6426703;23;20066;-60
2022/12/12 15:26:36;;;;;;;2.10;1.90;;;;;;;;;;6227287;23;20166;-62
2022/12/12 15:29:38;;;;;;;2.13;1.90;;;;;;;;;;5882366;28;21015;-62
2022/12/12 15:32:41;;;;;;;1.90;1.55;;;;;;;;;;6400644;23;21398;31
2022/12/12 15:35:50;;;;;;;2.03;1.83;;;20.60;54.70;;;;;;6287453;23;20050;-63
2022/12/12 15:39:10;;;;;;;;;;;20.40;55.00;;;;;;5899360;28;20382;-63
2022/12/12 15:42:13;;;;;;;3.00;1.80;;;20.70;54.80;;;;;;5893917;28;19937;-64
2022/12/12 15:45:19;;;;;;;3.55;1.90;;;21.00;52.80;;;;;;5935502;23;20441;-62
2022/12/12 15:48:22;;;;;;;2.75;2.00;;;;;;;;;;5874832;28;21412;-62
2022/12/12 15:51:30;;;;;;;2.50;1.50;;;20.50;51.00;;;;;;5882515;28;20056;-62
2022/12/12 15:54:31;;;;;;;1.65;1.40;;;;;;;;;;5866670;28;23565;-63
2022/12/12 15:57:48;;;;;;;1.58;1.48;;;20.30;53.90;;;;;;5871765;28;20053;-63
2022/12/12 16:00:51;;;;;;;2.53;1.48;;;20.40;53.50;;;;;;5847041;28;20154;-62
2022/12/12 16:03:55;;;;;;;2.05;1.63;;;20.50;53.60;;;;;;5815448;28;20057;-63
2022/12/12 16:07:19;;;;;;;1.90;1.55;;;20.40;49.80;;;;;;5811994;28;20050;-63
2022/12/12 16:10:23;;;;;;;1.80;1.50;;;20.50;54.00;;;;;;5764830;28;20046;-63
2022/12/12 16:13:34;;;;;;;1.85;1.65;;;20.30;53.80;;;;;;5825444;28;20043;-62
2022/12/12 16:16:42;;;;;;;1.70;1.50;;;20.40;54.60;;;;;;5808230;23;20052;-62
2022/12/12 16:19:47;;;;;;;2.13;1.80;;;20.20;54.30;;;;;;5827169;28;20980;-61
2022/12/12 16:22:50;;;;;;;2.13;1.70;;;20.30;53.50;;;;;;5800037;28;21496;-63
2022/12/12 16:25:51;;;;;;;1.85;1.52;;;;;;;;;;5852387;28;20048;-64
2022/12/12 16:28:53;;;;;;;2.78;1.60;;;;;;;;;;6314018;23;20043;-63
2022/12/12 16:31:56;;;;;;;2.25;2.00;;;20.50;53.70;;;;;;5913049;28;20090;-62
2022/12/12 16:34:58;;;;;;;1.85;1.60;;;;;;;;;;5891970;28;20039;-63
2022/12/12 16:38:08;;;;;;;2.45;1.67;;;20.10;54.10;;;;;;5906089;28;20090;-62
2022/12/12 16:41:13;;;;;;;2.17;1.67;;;20.20;53.90;;;;;;5919293;28;20035;-62
2022/12/12 16:44:15;;;;;;;2.40;1.67;;;;;;;;;;5916095;28;20073;-61
2022/12/12 16:47:18;;;;;;;1.90;1.70;;;20.00;53.40;;;;;;5931617;28;20046;-61
2022/12/12 16:50:20;;;;;;;2.97;1.65;;;;;;;;;;5906399;28;20047;-62
2022/12/12 16:53:22;;;;;;;3.08;1.95;;;20.10;53.10;;;;;;5932733;28;20050;-62
2022/12/12 16:56:24;;;;;;;1.50;1.40;;;;;;;;;;5932715;28;21449;-62
2022/12/12 16:59:26;;;;;;;1.70;1.60;;;;;;;;;;5926368;28;20135;-62
2022/12/12 17:02:27;;;;;;;2.17;1.83;;;;;;;;;;5932146;28;20183;-62
2022/12/12 17:09:28;;;;;;;2.42;1.70;;;20.00;53.10;;;;;;5923142;28;20039;-62
2022/12/12 17:12:31;;;;;;;2.00;1.80;;;;;;;;;;5972856;28;20050;-63
2022/12/12 17:15:33;;;;;;;2.22;2.03;;;19.20;51.90;;;;;;5985821;28;20042;-62
2022/12/12 17:18:35;;;;;;;2.40;1.73;;;;;;;;;;5969072;28;20051;-62
2022/12/12 17:21:37;;;;;;;1.85;1.48;;;;;;;;;;5986040;28;20047;-62